Time;durP1;ratioP1;P1;durP2;ratioP2;P2;SDS_P1;SDS_P2;PMS_P1;PMS_P2;Temp;Humidity;BMP_temperature;BMP_pressure;BME280_temperature;BME280_humidity;BME280_pressure;Samples;Min_cycle;Max_cycle;Signal;HPM_P1;HPM_P2
2024/02/05 00:02:11;;;;;;;0.90;0.80;;;;;;;5.05;91.02;98329.02;226058;1272;23115;-82
2024/02/05 00:07:18;;;;;;;1.50;0.90;;;;;;;5.04;90.94;98320.89;225899;1277;22544;-83
2024/02/05 00:12:20;;;;;;;1.20;0.80;;;;;;;5.03;90.91;98323.48;226128;1273;22581;-83
2024/02/05 00:17:22;;;;;;;0.90;0.70;;;;;;;5.02;91.17;98318.21;226115;1272;25345;-83
2024/02/05 00:22:24;;;;;;;0.50;0.50;;;;;;;5.01;91.20;98318.67;226018;1275;22548;-83
2024/02/05 00:27:27;;;;;;;0.80;0.60;;;;;;;5.01;91.10;98324.40;226088;1273;22573;-82
2024/02/05 00:32:29;;;;;;;0.60;0.50;;;;;;;5.00;90.91;98324.63;226040;1273;22571;-82
2024/02/05 00:37:31;;;;;;;0.90;0.50;;;;;;;4.99;90.95;98323.50;226092;1276;22558;-82
2024/02/05 00:42:34;;;;;;;1.10;0.50;;;;;;;4.99;91.00;98320.40;226092;1270;25434;-82
2024/02/05 00:47:36;;;;;;;0.40;0.40;;;;;;;4.98;90.99;98313.33;226073;1271;23277;-82
2024/02/05 00:52:38;;;;;;;0.70;0.50;;;;;;;4.97;91.23;98306.45;226090;1270;22580;-82
2024/02/05 00:57:40;;;;;;;0.80;0.70;;;;;;;4.97;91.37;98300.90;226090;1270;22597;-82
2024/02/05 01:02:42;;;;;;;1.90;0.80;;;;;;;4.95;91.41;98290.39;226009;1275;22551;-81
2024/02/05 01:07:44;;;;;;;0.60;0.60;;;;;;;4.93;91.17;98277.89;226004;1272;22572;-80
2024/02/05 01:12:46;;;;;;;0.70;0.50;;;;;;;4.88;91.20;98268.52;226115;1277;22562;-81
2024/02/05 01:17:48;;;;;;;0.80;0.30;;;;;;;4.83;91.27;98256.70;226103;1275;22546;-81
2024/02/05 01:22:51;;;;;;;1.00;0.60;;;;;;;4.79;91.47;98247.30;226147;1273;23007;-81
2024/02/05 01:27:53;;;;;;;0.70;0.60;;;;;;;4.77;91.43;98226.83;226087;1275;22638;-81
2024/02/05 01:32:55;;;;;;;0.60;0.60;;;;;;;4.76;91.33;98216.79;226090;1273;22551;-81
2024/02/05 01:37:58;;;;;;;0.80;0.60;;;;;;;4.74;91.39;98191.89;226130;1270;22559;-81
2024/02/05 01:43:00;;;;;;;0.70;0.50;;;;;;;4.74;91.66;98181.62;226035;1273;23351;-81
2024/02/05 01:48:04;;;;;;;0.70;0.70;;;;;;;4.73;91.95;98165.27;226098;1270;22547;-81
2024/02/05 01:53:07;;;;;;;1.30;0.60;;;;;;;4.74;92.47;98157.02;226104;1273;22554;-81
2024/02/05 01:58:11;;;;;;;1.70;0.80;;;;;;;4.76;92.47;98143.33;226138;1273;22536;-82
2024/02/05 02:03:14;;;;;;;0.70;0.70;;;;;;;4.79;92.31;98130.83;225840;1277;22553;-82
2024/02/05 02:08:18;;;;;;;1.40;1.20;;;;;;;4.81;92.38;98122.52;226077;1273;22537;-82
2024/02/05 02:13:20;;;;;;;2.10;1.30;;;;;;;4.84;92.58;98111.19;226124;1277;22548;-80
2024/02/05 02:18:25;;;;;;;2.00;1.40;;;;;;;4.86;92.62;98109.27;226090;1256;22543;-81
2024/02/05 02:23:33;;;;;;;2.90;2.20;;;;;;;4.86;93.22;98090.55;226252;1269;23043;-82
2024/02/05 02:28:35;;;;;;;3.40;2.70;;;;;;;4.89;92.74;98082.02;226168;1273;22566;-81
2024/02/05 02:34:10;;;;;;;3.90;3.00;;;;;;;4.93;92.92;98065.71;226039;1272;22543;-81
2024/02/05 02:39:28;;;;;;;4.20;3.40;;;;;;;4.97;92.71;98062.82;226044;1275;25271;-82
2024/02/05 02:44:33;;;;;;;5.20;4.30;;;;;;;5.00;93.29;98040.14;226124;1273;22566;-82
2024/02/05 02:49:35;;;;;;;5.00;4.40;;;;;;;5.03;92.85;98024.69;226084;1275;22555;-83
2024/02/05 02:54:37;;;;;;;8.20;7.40;;;;;;;5.05;92.99;98013.80;226026;1275;22564;-83
2024/02/05 02:59:39;;;;;;;9.10;8.20;;;;;;;5.08;93.27;98013.45;226089;1271;22582;-83
2024/02/05 03:04:42;;;;;;;8.40;7.50;;;;;;;5.11;93.54;98017.50;226164;1277;22615;-84
2024/02/05 03:09:44;;;;;;;8.10;7.20;;;;;;;5.13;93.24;98016.88;226164;1274;22966;-83
2024/02/05 03:14:47;;;;;;;8.00;7.20;;;;;;;5.17;94.07;97999.34;226077;1254;24233;-83
2024/02/05 03:19:49;;;;;;;6.10;5.50;;;;;;;5.21;93.86;97996.13;226117;1272;22579;-83
2024/02/05 03:24:52;;;;;;;6.20;5.00;;;;;;;5.24;93.96;97995.04;226084;1277;22597;-82
2024/02/05 03:29:55;;;;;;;5.10;4.60;;;;;;;5.27;93.85;97998.27;226158;1263;22566;-83
2024/02/05 03:34:58;;;;;;;5.00;4.40;;;;;;;5.31;93.95;97987.96;226132;1273;22551;-83
2024/02/05 03:40:00;;;;;;;4.40;4.00;;;;;;;5.35;94.06;97989.74;226164;1273;22916;-83
2024/02/05 03:45:03;;;;;;;3.50;3.00;;;;;;;5.40;94.07;97984.11;226136;1277;22575;-82
2024/02/05 03:50:10;;;;;;;1.80;1.70;;;;;;;5.46;94.28;97970.33;226143;1273;25249;-81
2024/02/05 03:55:13;;;;;;;1.90;1.30;;;;;;;5.53;94.52;97949.27;226054;1277;23488;-82
2024/02/05 04:00:20;;;;;;;2.90;1.60;;;;;;;5.58;94.61;97943.48;226042;1277;22543;-82
2024/02/05 04:05:25;;;;;;;1.70;1.60;;;;;;;5.63;94.64;97938.29;226159;1273;22536;-82
2024/02/05 04:10:27;;;;;;;2.20;2.00;;;;;;;5.67;94.60;97931.53;226157;1270;22573;-83
2024/02/05 04:15:29;;;;;;;2.00;1.70;;;;;;;5.72;94.44;97930.19;226146;1277;22980;-82
2024/02/05 04:20:32;;;;;;;1.50;1.40;;;;;;;5.77;94.84;97925.76;226166;1273;22547;-82
2024/02/05 04:25:35;;;;;;;1.30;1.20;;;;;;;5.83;94.95;97923.25;226092;1277;22692;-83
2024/02/05 04:30:41;;;;;;;1.80;1.50;;;;;;;5.91;94.87;97920.36;226172;1275;22501;-83
2024/02/05 04:35:44;;;;;;;2.60;1.20;;;;;;;6.00;95.38;97921.81;226159;1275;22583;-83
2024/02/05 04:40:46;;;;;;;2.30;1.30;;;;;;;6.08;95.08;97918.98;226144;1275;22582;-83
2024/02/05 04:45:48;;;;;;;6.20;1.60;;;;;;;6.14;94.81;97928.38;226053;1275;22503;-83
2024/02/05 04:50:51;;;;;;;1.70;1.60;;;;;;;6.19;94.65;97935.23;226080;1271;23829;-83
2024/02/05 04:55:54;;;;;;;5.90;1.80;;;;;;;6.25;94.30;97929.33;226158;1273;24217;-83
2024/02/05 05:00:56;;;;;;;3.80;1.10;;;;;;;6.30;94.72;97922.95;226137;1273;22535;-82
2024/02/05 05:05:59;;;;;;;1.90;1.40;;;;;;;6.36;94.61;97923.45;226156;1273;22524;-82
2024/02/05 05:11:02;;;;;;;4.70;1.50;;;;;;;6.43;94.05;97912.59;226076;1275;22563;-83
2024/02/05 05:16:05;;;;;;;1.40;1.20;;;;;;;6.54;94.44;97914.48;225967;1276;22567;-83
2024/02/05 05:21:07;;;;;;;2.60;1.00;;;;;;;6.68;94.68;97917.45;225818;1277;24192;-83
2024/02/05 05:26:10;;;;;;;0.80;0.70;;;;;;;6.84;94.79;97914.84;226149;1270;22546;-84
2024/02/05 05:31:16;;;;;;;0.90;0.60;;;;;;;7.01;94.92;97908.55;226205;1277;22522;-84
2024/02/05 05:36:18;;;;;;;1.40;0.40;;;;;;;7.17;95.39;97904.88;226086;1272;25480;-83
2024/02/05 05:41:20;;;;;;;1.00;0.60;;;;;;;7.29;95.30;97903.90;226200;1273;22543;-83
2024/02/05 05:46:22;;;;;;;1.00;0.40;;;;;;;7.40;95.25;97917.05;226159;1272;22565;-84
2024/02/05 05:51:25;;;;;;;1.40;0.50;;;;;;;7.52;94.70;97915.90;226151;1275;22603;-83
2024/02/05 05:56:28;;;;;;;0.60;0.40;;;;;;;7.62;94.59;97906.02;226238;1273;23187;-85
2024/02/05 06:01:35;;;;;;;0.60;0.40;;;;;;;7.73;94.08;97908.41;225913;1275;22546;-85
2024/02/05 06:06:38;;;;;;;0.80;0.50;;;;;;;7.84;94.20;97909.71;226152;1275;22839;-84
2024/02/05 06:11:40;;;;;;;1.40;0.70;;;;;;;7.93;93.89;97924.25;226141;1277;22531;-84
2024/02/05 06:16:42;;;;;;;1.60;0.60;;;;;;;8.00;93.25;97929.36;226222;1276;22562;-84
2024/02/05 06:21:44;;;;;;;1.20;0.50;;;;;;;8.07;93.38;97936.40;226175;1277;22540;-84
2024/02/05 06:26:46;;;;;;;0.50;0.50;;;;;;;8.13;92.78;97933.18;225924;1277;22546;-84
2024/02/05 06:31:49;;;;;;;0.30;0.30;;;;;;;8.20;93.04;97939.80;225987;1277;23337;-83
2024/02/05 06:36:51;;;;;;;0.40;0.40;;;;;;;8.26;92.82;97950.48;226130;1272;22606;-83
2024/02/05 06:41:56;;;;;;;0.40;0.40;;;;;;;8.33;92.24;97949.21;225859;1273;22546;-81
2024/02/05 06:46:58;;;;;;;0.70;0.30;;;;;;;8.41;92.14;97959.64;225959;1272;23766;-85
2024/02/05 06:52:00;;;;;;;2.70;2.40;;;;;;;8.48;91.66;97972.75;225997;1277;22583;-83
2024/02/05 06:57:03;;;;;;;0.30;0.30;;;;;;;8.55;91.47;97976.27;225438;1266;22579;-83
2024/02/05 07:02:08;;;;;;;0.30;0.30;;;;;;;8.62;91.28;97985.05;225609;1259;27135;-83
2024/02/05 07:07:11;;;;;;;0.60;0.40;;;;;;;8.68;90.74;97989.51;225730;1270;24241;-81
2024/02/05 07:12:13;;;;;;;0.40;0.30;;;;;;;8.75;90.39;97987.77;225374;1259;22547;-83
2024/02/05 07:17:16;;;;;;;0.90;0.30;;;;;;;8.81;90.28;97995.52;225699;1269;22539;-83
2024/02/05 07:22:18;;;;;;;0.40;0.40;;;;;;;8.87;90.05;98001.67;225625;1257;22958;-84
2024/02/05 07:27:23;;;;;;;0.30;0.30;;;;;;;8.92;89.50;97999.74;225789;1259;22937;-86
2024/02/05 07:32:25;;;;;;;0.30;0.30;;;;;;;8.95;89.46;98017.87;225673;1272;23118;-86
2024/02/05 07:37:27;;;;;;;0.30;0.30;;;;;;;8.99;89.36;98027.70;225973;1273;22539;-85
2024/02/05 07:42:37;;;;;;;0.30;0.30;;;;;;;9.03;88.78;98028.20;225980;1276;22559;-87
2024/02/05 07:48:01;;;;;;;2.50;1.20;;;;;;;9.06;88.86;98027.64;225631;1262;22540;-86
2024/02/05 07:53:03;;;;;;;0.90;0.40;;;;;;;9.12;88.90;98040.88;225308;1271;22921;-84
2024/02/05 07:58:06;;;;;;;0.80;0.40;;;;;;;9.15;88.61;98043.83;225289;1259;22574;-81
2024/02/05 08:03:10;;;;;;;0.50;0.40;;;;;;;9.19;88.43;98059.89;225603;1260;22674;-86
2024/02/05 08:08:13;;;;;;;0.30;0.30;;;;;;;9.24;88.33;98067.67;225947;1272;22679;-88
2024/02/05 08:13:15;;;;;;;0.50;0.50;;;;;;;9.29;88.25;98059.68;226022;1273;22472;-87
2024/02/05 08:18:18;;;;;;;0.60;0.50;;;;;;;9.31;87.97;98059.41;225978;1256;22870;-87
2024/02/05 08:23:22;;;;;;;0.80;0.60;;;;;;;9.30;88.05;98070.44;226158;1274;22581;-86
2024/02/05 08:28:24;;;;;;;0.50;0.50;;;;;;;9.29;88.40;98067.06;226141;1275;22544;-87
2024/02/05 08:33:30;;;;;;;0.40;0.30;;;;;;;9.29;88.33;98075.26;226103;1275;22674;-88
2024/02/05 08:38:34;;;;;;;0.40;0.40;;;;;;;9.32;88.03;98075.84;226023;1266;22581;-88
2024/02/05 08:43:38;;;;;;;1.20;0.50;;;;;;;9.34;87.91;98078.48;226156;1277;22527;-87
2024/02/05 08:48:41;;;;;;;0.40;0.40;;;;;;;9.36;87.68;98077.09;226324;1275;143762;-86
2024/02/05 08:53:44;;;;;;;0.50;0.40;;;;;;;9.40;87.65;98094.91;226288;1275;21933;-87
2024/02/05 08:58:47;;;;;;;1.30;0.90;;;;;;;9.43;87.72;98090.19;226247;1259;22641;-88
2024/02/05 09:03:49;;;;;;;0.60;0.40;;;;;;;9.45;87.68;98095.71;225995;1276;22633;-85
2024/02/05 09:08:51;;;;;;;0.50;0.50;;;;;;;9.48;87.57;98100.16;226121;1277;22540;-78
2024/02/05 09:13:54;;;;;;;0.50;0.50;;;;;;;9.51;87.45;98099.09;226140;1275;22527;-85
2024/02/05 09:18:57;;;;;;;0.80;0.50;;;;;;;9.52;87.37;98103.56;226086;1275;22551;-86
2024/02/05 09:24:00;;;;;;;0.60;0.40;;;;;;;9.53;87.23;98100.27;226083;1275;25288;-84
2024/02/05 09:29:02;;;;;;;0.40;0.40;;;;;;;9.56;87.24;98101.14;225981;1273;22575;-85
2024/02/05 09:34:04;;;;;;;1.10;0.40;;;;;;;9.61;86.94;98103.16;226105;1259;25306;-84
2024/02/05 09:39:06;;;;;;;0.50;0.50;;;;;;;9.66;86.93;98119.39;226116;1272;22575;-82
2024/02/05 09:44:10;;;;;;;0.30;0.30;;;;;;;9.68;86.96;98110.11;225784;1257;22565;-82
2024/02/05 09:49:12;;;;;;;0.30;0.30;;;;;;;9.68;86.82;98107.23;225862;1272;22543;-83
2024/02/05 09:54:15;;;;;;;0.70;0.30;;;;;;;9.71;86.75;98116.08;225849;1273;23850;-83
2024/02/05 09:59:25;;;;;;;0.40;0.30;;;;;;;9.75;86.46;98113.91;226048;1277;22547;-83
2024/02/05 10:04:28;;;;;;;1.60;1.10;;;;;;;9.77;86.57;98109.63;225941;1254;22562;-83
2024/02/05 10:09:31;;;;;;;0.20;0.20;;;;;;;9.76;86.45;98120.61;226012;1278;22592;-83
2024/02/05 10:14:33;;;;;;;0.50;0.50;;;;;;;9.74;86.33;98128.02;226030;1263;22582;-83
2024/02/05 10:19:35;;;;;;;0.30;0.30;;;;;;;9.72;86.39;98120.18;225963;1274;22679;-83
2024/02/05 10:24:40;;;;;;;0.40;0.40;;;;;;;9.69;86.57;98121.30;226078;1259;22551;-83
2024/02/05 10:29:43;;;;;;;0.40;0.40;;;;;;;9.67;86.89;98114.48;226335;1275;22543;-84
2024/02/05 10:34:50;;;;;;;1.20;0.60;;;;;;;9.68;87.11;98120.00;226021;1270;22525;-83
2024/02/05 10:40:04;;;;;;;1.10;0.40;;;;;;;9.69;86.93;98114.09;226184;1254;22550;-85
2024/02/05 10:45:09;;;;;;;0.90;0.60;;;;;;;9.69;87.25;98117.41;225976;1270;22543;-85
2024/02/05 10:50:13;;;;;;;0.50;0.40;;;;;;;9.68;87.20;98113.27;226127;1277;22549;-84
2024/02/05 10:55:17;;;;;;;0.80;0.50;;;;;;;9.66;87.34;98124.09;225973;1259;22969;-84
2024/02/05 11:00:20;;;;;;;0.50;0.50;;;;;;;9.63;87.00;98119.20;226222;1273;22543;-86
2024/02/05 11:05:25;;;;;;;0.40;0.40;;;;;;;9.59;87.28;98110.45;225942;1272;22905;-86
2024/02/05 11:10:32;;;;;;;0.50;0.40;;;;;;;9.54;87.51;98119.43;226014;1276;22554;-89
2024/02/05 11:15:38;;;;;;;2.00;0.80;;;;;;;9.53;87.39;98115.73;226396;1268;22558;-87
2024/02/05 11:20:44;;;;;;;5.30;1.00;;;;;;;9.52;87.51;98118.29;225884;1277;22552;-85
2024/02/05 11:25:47;;;;;;;0.60;0.50;;;;;;;9.54;87.68;98102.59;225679;1275;22564;-76
2024/02/05 11:30:49;;;;;;;1.00;0.60;;;;;;;9.60;87.57;98096.77;225933;1269;22564;-78
2024/02/05 11:35:54;;;;;;;1.20;0.60;;;;;;;9.67;87.38;98101.30;225860;1270;22579;-80
2024/02/05 11:40:56;;;;;;;0.60;0.50;;;;;;;9.74;87.23;98094.35;225969;1260;22560;-81
2024/02/05 11:45:58;;;;;;;0.80;0.60;;;;;;;9.82;86.93;98112.16;225713;1273;22557;-81
2024/02/05 11:51:12;;;;;;;0.60;0.60;;;;;;;9.85;86.68;98112.79;225741;1270;24202;-83
2024/02/05 11:56:15;;;;;;;0.70;0.70;;;;;;;9.89;86.38;98115.73;225763;1257;24264;-84
2024/02/05 12:01:17;;;;;;;3.50;2.90;;;;;;;9.92;86.41;98113.87;226267;1272;22555;-84
2024/02/05 12:06:19;;;;;;;1.10;1.00;;;;;;;9.93;86.56;98111.44;225842;1267;22572;-75
2024/02/05 12:11:21;;;;;;;0.80;0.60;;;;;;;9.92;86.39;98109.61;225572;1254;22625;-79
2024/02/05 12:16:30;;;;;;;1.00;0.70;;;;;;;9.93;86.26;98096.86;225738;1266;22547;-79
2024/02/05 12:21:32;;;;;;;1.60;0.90;;;;;;;9.94;86.11;98092.42;225712;1273;22608;-77
2024/02/05 12:26:35;;;;;;;1.40;1.00;;;;;;;10.00;86.11;98089.55;225842;1275;22547;-78
2024/02/05 12:31:37;;;;;;;1.00;0.80;;;;;;;10.09;85.91;98095.61;226000;1267;22647;-78
2024/02/05 12:36:40;;;;;;;0.70;0.70;;;;;;;10.16;85.78;98098.48;225777;1270;22549;-78
2024/02/05 12:41:44;;;;;;;1.70;1.30;;;;;;;10.22;85.52;98100.33;225448;1255;22542;-79
2024/02/05 12:46:46;;;;;;;2.40;0.70;;;;;;;10.27;85.11;98106.05;225899;1261;25304;-81
2024/02/05 12:51:49;;;;;;;1.20;0.80;;;;;;;10.33;84.56;98118.26;225829;1263;23734;-81
2024/02/05 12:56:51;;;;;;;2.10;0.70;;;;;;;10.42;84.50;98117.52;225887;1275;22528;-82
2024/02/05 13:01:54;;;;;;;1.60;1.10;;;;;;;10.44;83.86;98122.43;225777;1260;25034;-81
2024/02/05 13:07:04;;;;;;;3.70;1.30;;;;;;;10.41;83.81;98123.89;225881;1275;23092;-80
2024/02/05 13:12:13;;;;;;;1.90;1.10;;;;;;;10.37;83.80;98121.67;225843;1276;22578;-81
2024/02/05 13:17:16;;;;;;;3.10;1.20;;;;;;;10.31;83.82;98140.05;226043;1277;22557;-83
2024/02/05 13:22:18;;;;;;;3.20;1.10;;;;;;;10.24;84.06;98143.17;225912;1277;22656;-83
2024/02/05 13:27:20;;;;;;;2.40;1.60;;;;;;;10.17;84.25;98138.09;226082;1275;24076;-83
2024/02/05 13:32:22;;;;;;;3.00;1.30;;;;;;;10.12;84.05;98135.90;226255;1263;22595;-83
2024/02/05 13:37:24;;;;;;;2.40;1.50;;;;;;;10.14;84.17;98136.80;226368;1276;22549;-82
2024/02/05 13:42:36;;;;;;;2.20;1.40;;;;;;;10.21;84.11;98139.80;226300;1270;22542;-83
2024/02/05 13:47:38;;;;;;;2.50;1.40;;;;;;;10.29;83.69;98130.42;226409;1277;22585;-77
2024/02/05 13:52:40;;;;;;;2.90;1.90;;;;;;;10.37;83.63;98133.58;226013;1270;22572;-78
2024/02/05 13:57:43;;;;;;;3.10;1.80;;;;;;;10.43;83.13;98143.67;225862;1277;22652;-81
2024/02/05 14:02:45;;;;;;;3.70;2.10;;;;;;;10.45;83.03;98142.63;225907;1275;25113;-81
2024/02/05 14:07:50;;;;;;;2.80;1.90;;;;;;;10.44;82.91;98139.01;226162;1270;22474;-81
2024/02/05 14:12:52;;;;;;;3.80;1.90;;;;;;;10.43;82.45;98143.31;226239;1276;22552;-80
2024/02/05 14:17:54;;;;;;;5.20;2.00;;;;;;;10.43;82.30;98146.36;226322;1273;22586;-77
2024/02/05 14:22:57;;;;;;;7.20;2.10;;;;;;;10.43;81.96;98162.58;226078;1258;25421;-79
2024/02/05 14:27:59;;;;;;;4.30;2.10;;;;;;;10.45;81.60;98157.02;226155;1270;25454;-81
2024/02/05 14:33:01;;;;;;;6.20;2.30;;;;;;;10.46;81.62;98162.62;226251;1270;24256;-80
2024/02/05 14:38:06;;;;;;;6.60;2.80;;;;;;;10.47;81.66;98175.63;226179;1263;22548;-80
2024/02/05 14:43:08;;;;;;;7.30;2.90;;;;;;;10.39;81.84;98188.12;226333;1260;22579;-81
2024/02/05 14:48:13;;;;;;;8.30;3.00;;;;;;;10.23;81.94;98197.72;226473;1276;23048;-90
2024/02/05 14:53:25;;;;;;;6.80;3.00;;;;;;;10.07;82.34;98189.09;226479;1276;22556;-80
2024/02/05 14:58:27;;;;;;;8.10;3.20;;;;;;;9.99;82.39;98200.22;226434;1276;22561;-89
2024/02/05 15:03:30;;;;;;;10.30;3.50;;;;;;;9.96;82.48;98198.95;226243;1275;22672;-90
2024/02/05 15:08:35;;;;;;;7.50;3.30;;;;;;;9.98;82.21;98203.18;226340;1277;22543;-89
2024/02/05 15:13:38;;;;;;;7.10;3.20;;;;;;;10.02;82.15;98203.69;226158;1278;22546;-89
2024/02/05 15:18:41;;;;;;;6.20;3.10;;;;;;;10.06;82.04;98205.94;226400;1277;22547;-88
2024/02/05 15:23:44;;;;;;;10.90;3.80;;;;;;;10.10;81.54;98214.39;226261;1267;22554;-87
2024/02/05 15:28:47;;;;;;;10.50;3.60;;;;;;;10.14;81.07;98223.30;226549;1276;22563;-87
2024/02/05 15:33:50;;;;;;;8.30;3.90;;;;;;;10.17;80.83;98228.55;226284;1277;22738;-88
2024/02/05 15:38:53;;;;;;;11.20;3.70;;;;;;;10.17;80.81;98232.85;226629;1277;22600;-87
2024/02/05 15:43:56;;;;;;;7.70;4.00;;;;;;;10.14;80.87;98226.50;226445;1278;22567;-87
2024/02/05 15:48:59;;;;;;;8.90;4.10;;;;;;;10.08;80.68;98239.41;226494;1276;22516;-87
2024/02/05 15:54:03;;;;;;;8.90;3.80;;;;;;;10.06;80.39;98246.63;226618;1276;22562;-88
2024/02/05 15:59:06;;;;;;;10.00;3.80;;;;;;;10.02;80.44;98255.75;226431;1277;25428;-87
2024/02/05 16:04:10;;;;;;;12.40;4.50;;;;;;;9.97;80.32;98267.95;226664;1273;22627;-87
2024/02/05 16:09:12;;;;;;;9.60;3.60;;;;;;;9.92;80.47;98268.95;226339;1277;22719;-87
2024/02/05 16:14:17;;;;;;;9.40;4.20;;;;;;;9.90;80.17;98270.23;226443;1277;22571;-88
2024/02/05 16:19:19;;;;;;;8.40;3.70;;;;;;;9.90;80.12;98272.52;226506;1277;22566;-87
2024/02/05 16:24:24;;;;;;;11.10;4.20;;;;;;;9.91;80.24;98278.31;226391;1277;22551;-87
2024/02/05 16:29:27;;;;;;;12.50;4.80;;;;;;;9.93;79.81;98282.84;226507;1277;22554;-87
2024/02/05 16:34:30;;;;;;;11.80;4.50;;;;;;;9.94;79.60;98275.65;226647;1273;22555;-88
2024/02/05 16:39:35;;;;;;;9.40;3.50;;;;;;;9.96;79.46;98285.71;226737;1277;22553;-88
2024/02/05 16:44:38;;;;;;;12.20;4.50;;;;;;;9.98;79.13;98278.01;226436;1277;22595;-87
2024/02/05 16:49:40;;;;;;;10.50;3.30;;;;;;;10.00;79.15;98274.16;226420;1277;25294;-87
2024/02/05 16:54:44;;;;;;;8.10;3.50;;;;;;;10.01;78.87;98269.25;226492;1276;25954;-87
2024/02/05 16:59:47;;;;;;;6.60;3.50;;;;;;;10.01;78.82;98270.68;226453;1254;22534;-88
2024/02/05 17:04:50;;;;;;;9.20;3.70;;;;;;;10.01;78.73;98265.85;226444;1276;22488;-88
2024/02/05 17:09:53;;;;;;;8.40;3.70;;;;;;;10.02;78.63;98268.01;226379;1270;22551;-89
2024/02/05 17:14:56;;;;;;;11.80;4.00;;;;;;;10.05;78.21;98267.79;226419;1276;22551;-87
2024/02/05 17:19:58;;;;;;;8.60;3.40;;;;;;;10.06;78.28;98265.19;226523;1274;22547;-87
2024/02/05 17:25:01;;;;;;;7.80;3.10;;;;;;;10.07;78.32;98273.08;226485;1277;22549;-87
2024/02/05 17:30:06;;;;;;;8.10;3.50;;;;;;;10.07;78.37;98264.75;226429;1274;23185;-88
2024/02/05 17:35:09;;;;;;;8.40;3.20;;;;;;;10.07;78.31;98265.08;226279;1259;22527;-86
2024/02/05 17:40:12;;;;;;;10.30;3.50;;;;;;;10.06;78.09;98267.66;226414;1276;22560;-87
2024/02/05 17:45:16;;;;;;;7.80;3.40;;;;;;;10.03;78.36;98268.09;226503;1277;22563;-88
2024/02/05 17:50:19;;;;;;;5.70;3.10;;;;;;;10.00;78.18;98264.91;226431;1276;22557;-87
2024/02/05 17:55:22;;;;;;;11.60;3.70;;;;;;;9.99;78.26;98270.95;226420;1276;25944;-87
2024/02/05 18:00:25;;;;;;;9.60;4.00;;;;;;;9.99;78.43;98277.80;226413;1276;22550;-87
2024/02/05 18:05:27;;;;;;;12.30;3.60;;;;;;;10.00;78.35;98276.64;226645;1276;22603;-87
2024/02/05 18:10:30;;;;;;;9.30;3.70;;;;;;;9.99;78.08;98273.39;226348;1277;22543;-87
2024/02/05 18:15:34;;;;;;;11.70;5.30;;;;;;;9.97;77.99;98268.66;226440;1276;22559;-88
2024/02/05 18:20:39;;;;;;;8.70;5.50;;;;;;;9.93;77.78;98278.17;226423;1277;22553;-89
2024/02/05 18:25:42;;;;;;;9.90;5.60;;;;;;;9.91;77.74;98286.89;226613;1275;22574;-89
2024/02/05 18:30:44;;;;;;;12.70;6.00;;;;;;;9.88;77.62;98287.95;226381;1277;22566;-89
2024/02/05 18:35:48;;;;;;;8.90;5.00;;;;;;;9.85;77.56;98293.98;226539;1277;22575;-88
2024/02/05 18:40:51;;;;;;;10.40;4.70;;;;;;;9.81;77.81;98290.19;226410;1269;22580;-88
2024/02/05 18:46:03;;;;;;;10.10;4.50;;;;;;;9.79;77.58;98293.13;226567;1275;22485;-88
2024/02/05 18:51:06;;;;;;;10.20;4.40;;;;;;;9.77;77.70;98291.45;226206;1277;22528;-88
2024/02/05 18:56:10;;;;;;;8.40;4.40;;;;;;;9.76;77.75;98293.63;226453;1277;22617;-88
2024/02/05 19:01:16;;;;;;;8.10;4.50;;;;;;;9.73;77.56;98291.70;226437;1273;22555;-88
2024/02/05 19:06:19;;;;;;;9.50;5.00;;;;;;;9.69;77.58;98293.57;226385;1277;22548;-89
2024/02/05 19:11:22;;;;;;;11.70;5.40;;;;;;;9.65;77.28;98284.63;226366;1277;23067;-88
2024/02/05 19:16:26;;;;;;;8.80;5.30;;;;;;;9.63;77.54;98289.77;226246;1277;22613;-88
2024/02/05 19:21:29;;;;;;;12.40;6.20;;;;;;;9.59;77.70;98288.36;226569;1277;22546;-90
2024/02/05 19:26:31;;;;;;;12.90;6.40;;;;;;;9.56;77.68;98292.08;226383;1277;22554;-89
2024/02/05 19:31:35;;;;;;;12.10;6.20;;;;;;;9.52;77.64;98292.57;226520;1272;24146;-88
2024/02/05 19:36:38;;;;;;;13.70;6.20;;;;;;;9.47;77.69;98293.66;226248;1277;22581;-88
2024/02/05 19:41:43;;;;;;;10.90;5.00;;;;;;;9.44;77.71;98293.05;226564;1277;22559;-88
2024/02/05 19:46:48;;;;;;;11.90;5.60;;;;;;;9.43;77.46;98296.20;226427;1260;22546;-89
2024/02/05 19:51:51;;;;;;;10.40;5.20;;;;;;;9.43;77.68;98293.41;226423;1277;22580;-88
2024/02/05 19:56:54;;;;;;;9.20;4.30;;;;;;;9.42;77.77;98289.63;226526;1276;22558;-89
2024/02/05 20:01:57;;;;;;;11.10;4.70;;;;;;;9.40;77.53;98290.34;226458;1277;22574;-88
2024/02/05 20:07:06;;;;;;;9.00;4.30;;;;;;;9.40;77.38;98286.29;226426;1277;22551;-91
2024/02/05 20:12:11;;;;;;;11.60;4.50;;;;;;;9.40;77.58;98273.91;226584;1260;22584;-89
2024/02/05 20:17:17;;;;;;;9.90;4.40;;;;;;;9.36;77.30;98274.13;226553;1276;22557;-91
2024/02/05 20:22:21;;;;;;;12.40;4.30;;;;;;;9.35;77.19;98274.54;226575;1277;22552;-88
2024/02/05 20:27:25;;;;;;;9.50;4.10;;;;;;;9.35;77.03;98267.73;226559;1277;23216;-90
2024/02/05 20:32:28;;;;;;;6.50;3.70;;;;;;;9.34;76.88;98272.75;226478;1274;22566;-91
2024/02/05 20:37:32;;;;;;;7.60;3.50;;;;;;;9.33;76.43;98270.52;226412;1277;22606;-89
2024/02/05 20:42:38;;;;;;;8.90;3.80;;;;;;;9.32;76.06;98271.73;226523;1277;22545;-88
2024/02/05 20:47:41;;;;;;;8.90;4.10;;;;;;;9.30;76.34;98268.63;226136;1277;478948;-89
2024/02/05 20:52:43;;;;;;;8.70;3.30;;;;;;;9.28;75.84;98263.98;226517;1269;22566;-90
2024/02/05 20:57:47;;;;;;;10.00;3.90;;;;;;;9.27;75.81;98259.91;226591;1277;23018;-91
2024/02/05 21:02:52;;;;;;;7.80;3.60;;;;;;;9.26;75.86;98258.28;226398;1274;22576;-92
2024/02/05 21:07:59;;;;;;;9.80;4.20;;;;;;;9.25;75.63;98257.48;226514;1273;23412;-91
2024/02/05 21:13:03;;;;;;;7.90;4.60;;;;;;;9.24;75.61;98253.40;226551;1276;22575;-91
2024/02/05 21:18:08;;;;;;;9.00;3.80;;;;;;;9.23;75.87;98257.77;226459;1275;22561;-91
2024/02/05 21:23:14;;;;;;;9.30;3.80;;;;;;;9.21;75.71;98253.55;226567;1275;22559;-90
2024/02/05 21:28:18;;;;;;;6.90;3.60;;;;;;;9.17;75.94;98255.25;226780;1277;23055;-90
2024/02/05 21:33:21;;;;;;;5.70;2.60;;;;;;;9.15;75.70;98250.71;226653;1275;22537;-91
2024/02/05 21:38:25;;;;;;;8.60;3.20;;;;;;;9.10;75.69;98249.70;226603;1277;22574;-90
2024/02/05 21:43:28;;;;;;;6.50;3.20;;;;;;;9.09;75.69;98252.28;226740;1277;22560;-90
2024/02/05 21:48:32;;;;;;;8.70;3.40;;;;;;;9.09;75.60;98258.25;226659;1275;22513;-90
2024/02/05 21:53:37;;;;;;;7.80;3.70;;;;;;;9.09;75.70;98267.33;226627;1276;22378;-90
2024/02/05 21:58:40;;;;;;;8.60;4.00;;;;;;;9.12;75.74;98265.33;226591;1277;24264;-89
2024/02/05 22:03:43;;;;;;;8.00;3.80;;;;;;;9.13;75.35;98269.84;226490;1277;25262;-90
2024/02/05 22:08:51;;;;;;;6.10;3.30;;;;;;;9.14;74.96;98265.52;226556;1277;22574;-91
2024/02/05 22:13:54;;;;;;;8.70;3.60;;;;;;;9.15;74.99;98272.58;226403;1256;24216;-90
2024/02/05 22:18:58;;;;;;;7.40;3.90;;;;;;;9.17;74.76;98274.86;226556;1277;22543;-91
2024/02/05 22:24:02;;;;;;;7.70;3.50;;;;;;;9.17;75.03;98279.77;226481;1277;22543;-90
2024/02/05 22:29:07;;;;;;;6.90;3.00;;;;;;;9.16;74.71;98286.01;226758;1275;22539;-91
2024/02/05 22:34:11;;;;;;;8.60;3.60;;;;;;;9.15;74.38;98285.55;226535;1277;22591;-91
2024/02/05 22:39:28;;;;;;;8.70;3.40;;;;;;;9.13;74.67;98291.00;226776;1262;22546;-90
2024/02/05 22:44:34;;;;;;;8.50;3.40;;;;;;;9.11;74.58;98289.65;226608;1276;22612;-91
2024/02/05 22:49:39;;;;;;;8.40;2.80;;;;;;;9.07;74.47;98296.21;226741;1267;22547;-90
2024/02/05 22:54:43;;;;;;;4.40;2.90;;;;;;;9.05;74.71;98299.54;226638;1277;24174;-89
2024/02/05 22:59:46;;;;;;;6.10;3.20;;;;;;;9.04;74.43;98292.48;226725;1275;22476;-91
2024/02/05 23:04:51;;;;;;;5.70;2.60;;;;;;;9.00;74.33;98294.70;226665;1272;25374;-90
2024/02/05 23:09:56;;;;;;;6.60;2.30;;;;;;;8.94;74.41;98288.08;226556;1277;22574;-90
2024/02/05 23:14:59;;;;;;;7.50;2.80;;;;;;;8.89;74.24;98292.71;226766;1277;22556;-90
2024/02/05 23:20:04;;;;;;;8.60;2.60;;;;;;;8.84;74.08;98290.95;226665;1277;22530;-91
2024/02/05 23:25:08;;;;;;;5.00;2.90;;;;;;;8.76;73.81;98290.96;226664;1277;22546;-91
2024/02/05 23:30:13;;;;;;;6.80;2.70;;;;;;;8.69;74.03;98290.61;226622;1277;22652;-88
2024/02/05 23:35:16;;;;;;;8.50;3.50;;;;;;;8.62;73.99;98290.79;226650;1260;22493;-91
2024/02/05 23:40:18;;;;;;;8.70;3.30;;;;;;;8.51;73.74;98292.13;226715;1277;22564;-91
2024/02/05 23:45:23;;;;;;;6.00;3.30;;;;;;;8.39;74.49;98295.16;226684;1277;22570;-89